aviador You're here:

KFYV Decoded Metar

FAYETTEVILLE in AR, USA
Report Time2018-06-25 05:53:00
UTC Time2018-06-25 06:15:36
Flight Rules vfr VFR
Wind150° at 04 kt
W.Decomp.*RWY 16: 3.9 kt HW 0.8 kt LCW
W.Rank150° ranks 7
Current wind is below 150° avg. (6.6)
Visibility9999 m
Phenomena:N/A
Clouds:N/A
CeilingNone
Temp17°C (ISA +4)
Dew Point17°C (100% RH)
QNH1013 hPa
Density Alt2,031 ft
Elevation1,243 ft
Report Wrong Elevation
Raw Report
KFYV 250553Z AUTO 15004KT 10SM CLR 17/17 A2991 RMK AO2 SLP115
60004 T01720172 10206 20172 402500172 50007=

Extra information for KFYV:More info

Metar Taf Metar & Taf Last 4 Metars F.Rules Stats Wind Profile Meteogram Temp Stats Airport Information Weather charts Add Link Nearby VenuesMetar ALERT Operation Metar Decoded Social comments

AIRNAV info for KFYV